sensor_id;sensor_type;location;lat;lon;timestamp;pressure;altitude;pressure_sealevel;temperature;humidity
25658;BME280;13517;59.320;18.042;2023-05-19T00:00:40;102422.03;;;6.40;100.00
25658;BME280;13517;59.320;18.042;2023-05-19T00:03:09;102454.75;;;6.61;100.00
25658;BME280;13517;59.320;18.042;2023-05-19T00:05:35;102451.38;;;6.50;100.00
25658;BME280;13517;59.320;18.042;2023-05-19T00:08:10;102447.84;;;6.48;100.00
25658;BME280;13517;59.320;18.042;2023-05-19T00:10:37;102459.38;;;6.53;100.00
25658;BME280;13517;59.320;18.042;2023-05-19T00:13:03;102469.19;;;6.54;100.00
25658;BME280;13517;59.320;18.042;2023-05-19T00:15:29;102436.38;;;6.38;100.00
25658;BME280;13517;59.320;18.042;2023-05-19T00:17:54;102428.56;;;6.27;100.00
25658;BME280;13517;59.320;18.042;2023-05-19T00:20:20;102468.41;;;6.47;100.00
25658;BME280;13517;59.320;18.042;2023-05-19T00:22:46;102461.38;;;6.42;100.00
25658;BME280;13517;59.320;18.042;2023-05-19T00:25:11;102460.47;;;6.43;100.00
25658;BME280;13517;59.320;18.042;2023-05-19T00:27:37;102475.59;;;6.47;100.00
25658;BME280;13517;59.320;18.042;2023-05-19T00:30:02;102441.16;;;6.22;100.00
25658;BME280;13517;59.320;18.042;2023-05-19T00:32:28;102465.94;;;6.36;100.00
25658;BME280;13517;59.320;18.042;2023-05-19T00:34:53;102472.91;;;6.47;100.00
25658;BME280;13517;59.320;18.042;2023-05-19T00:37:18;102459.66;;;6.37;100.00
25658;BME280;13517;59.320;18.042;2023-05-19T00:39:44;102452.63;;;6.32;100.00
25658;BME280;13517;59.320;18.042;2023-05-19T00:42:10;102450.09;;;6.24;100.00
25658;BME280;13517;59.320;18.042;2023-05-19T00:44:39;102442.22;;;6.13;100.00
25658;BME280;13517;59.320;18.042;2023-05-19T00:47:05;102443.06;;;6.17;100.00
25658;BME280;13517;59.320;18.042;2023-05-19T00:49:31;102451.91;;;6.22;100.00
25658;BME280;13517;59.320;18.042;2023-05-19T00:51:57;102474.19;;;6.27;100.00
25658;BME280;13517;59.320;18.042;2023-05-19T00:54:23;102457.44;;;6.14;100.00
25658;BME280;13517;59.320;18.042;2023-05-19T00:56:49;102485.84;;;6.26;100.00
25658;BME280;13517;59.320;18.042;2023-05-19T00:59:15;102487.66;;;6.24;100.00
25658;BME280;13517;59.320;18.042;2023-05-19T01:01:40;102478.91;;;6.14;100.00
25658;BME280;13517;59.320;18.042;2023-05-19T01:04:06;102470.13;;;6.01;100.00
25658;BME280;13517;59.320;18.042;2023-05-19T01:06:35;102490.56;;;6.11;100.00
25658;BME280;13517;59.320;18.042;2023-05-19T01:09:03;102500.41;;;6.09;100.00
25658;BME280;13517;59.320;18.042;2023-05-19T01:11:28;102501.38;;;6.07;100.00
25658;BME280;13517;59.320;18.042;2023-05-19T01:13:54;102470.22;;;5.95;100.00
25658;BME280;13517;59.320;18.042;2023-05-19T01:16:30;102499.59;;;6.06;100.00
25658;BME280;13517;59.320;18.042;2023-05-19T01:22:00;102508.50;;;6.08;100.00
25658;BME280;13517;59.320;18.042;2023-05-19T01:28:03;102497.06;;;5.95;100.00
25658;BME280;13517;59.320;18.042;2023-05-19T01:30:42;102511.28;;;6.00;100.00
25658;BME280;13517;59.320;18.042;2023-05-19T01:33:11;102496.19;;;5.94;100.00
25658;BME280;13517;59.320;18.042;2023-05-19T01:35:39;102511.34;;;5.97;100.00
25658;BME280;13517;59.320;18.042;2023-05-19T01:38:08;102506.00;;;5.94;100.00
25658;BME280;13517;59.320;18.042;2023-05-19T01:40:34;102502.41;;;5.95;100.00
25658;BME280;13517;59.320;18.042;2023-05-19T01:43:02;102512.28;;;5.94;100.00
25658;BME280;13517;59.320;18.042;2023-05-19T01:45:29;102500.72;;;5.89;100.00
25658;BME280;13517;59.320;18.042;2023-05-19T01:47:58;102490.09;;;5.84;100.00
25658;BME280;13517;59.320;18.042;2023-05-19T01:50:24;102504.25;;;5.93;100.00
25658;BME280;13517;59.320;18.042;2023-05-19T01:52:50;102501.56;;;5.93;100.00
25658;BME280;13517;59.320;18.042;2023-05-19T01:55:16;102490.97;;;5.85;100.00
25658;BME280;13517;59.320;18.042;2023-05-19T01:57:59;102503.38;;;5.92;100.00
25658;BME280;13517;59.320;18.042;2023-05-19T02:03:37;102490.09;;;5.83;100.00
25658;BME280;13517;59.320;18.042;2023-05-19T02:09:10;102488.31;;;5.83;100.00
25658;BME280;13517;59.320;18.042;2023-05-19T02:11:40;102506.00;;;5.94;100.00
25658;BME280;13517;59.320;18.042;2023-05-19T02:14:12;102496.19;;;5.94;100.00
25658;BME280;13517;59.320;18.042;2023-05-19T02:16:44;102492.66;;;5.92;100.00
25658;BME280;13517;59.320;18.042;2023-05-19T02:19:25;102469.53;;;5.83;100.00
25658;BME280;13517;59.320;18.042;2023-05-19T02:21:51;102509.44;;;6.05;100.00
25658;BME280;13517;59.320;18.042;2023-05-19T02:24:18;102481.84;;;5.97;100.00
25658;BME280;13517;59.320;18.042;2023-05-19T02:26:44;102498.63;;;6.11;100.00
25658;BME280;13517;59.320;18.042;2023-05-19T02:29:10;102509.19;;;6.21;100.00
25658;BME280;13517;59.320;18.042;2023-05-19T02:31:36;102496.66;;;6.21;100.00
25658;BME280;13517;59.320;18.042;2023-05-19T02:34:01;102469.91;;;6.17;100.00
25658;BME280;13517;59.320;18.042;2023-05-19T02:36:26;102464.34;;;6.26;100.00
25658;BME280;13517;59.320;18.042;2023-05-19T02:38:52;102482.53;;;6.59;100.00
25658;BME280;13517;59.320;18.042;2023-05-19T02:41:17;102489.34;;;6.77;100.00
25658;BME280;13517;59.320;18.042;2023-05-19T02:43:43;102487.94;;;7.01;100.00
25658;BME280;13517;59.320;18.042;2023-05-19T02:46:09;102501.63;;;7.30;100.00
25658;BME280;13517;59.320;18.042;2023-05-19T02:48:34;102511.19;;;7.43;100.00
25658;BME280;13517;59.320;18.042;2023-05-19T02:50:59;102477.13;;;7.45;100.00
25658;BME280;13517;59.320;18.042;2023-05-19T02:53:25;102466.16;;;7.53;100.00
25658;BME280;13517;59.320;18.042;2023-05-19T02:55:51;102508.22;;;7.95;100.00
25658;BME280;13517;59.320;18.042;2023-05-19T02:58:16;102491.66;;;8.11;100.00
25658;BME280;13517;59.320;18.042;2023-05-19T03:00:43;102488.97;;;8.11;100.00
25658;BME280;13517;59.320;18.042;2023-05-19T03:03:09;102517.25;;;8.27;100.00
25658;BME280;13517;59.320;18.042;2023-05-19T03:05:35;102451.06;;;7.84;100.00
25658;BME280;13517;59.320;18.042;2023-05-19T03:08:00;102504.09;;;8.51;100.00
25658;BME280;13517;59.320;18.042;2023-05-19T03:10:26;102505.41;;;9.01;100.00
25658;BME280;13517;59.320;18.042;2023-05-19T03:12:52;102485.69;;;9.58;100.00
25658;BME280;13517;59.320;18.042;2023-05-19T03:15:17;102521.59;;;10.15;100.00
25658;BME280;13517;59.320;18.042;2023-05-19T03:17:43;102519.19;;;10.33;100.00
25658;BME280;13517;59.320;18.042;2023-05-19T03:20:09;102514.94;;;10.53;100.00
25658;BME280;13517;59.320;18.042;2023-05-19T03:22:35;102520.94;;;10.61;100.00
25658;BME280;13517;59.320;18.042;2023-05-19T03:25:01;102517.00;;;10.17;100.00
25658;BME280;13517;59.320;18.042;2023-05-19T03:27:28;102518.94;;;9.58;100.00
25658;BME280;13517;59.320;18.042;2023-05-19T03:29:53;102513.09;;;9.13;100.00
25658;BME280;13517;59.320;18.042;2023-05-19T03:32:18;102504.16;;;8.81;100.00
25658;BME280;13517;59.320;18.042;2023-05-19T03:34:44;102519.41;;;8.82;100.00
25658;BME280;13517;59.320;18.042;2023-05-19T03:37:09;102527.50;;;8.81;100.00
25658;BME280;13517;59.320;18.042;2023-05-19T03:39:35;102531.09;;;8.81;100.00
25658;BME280;13517;59.320;18.042;2023-05-19T03:42:00;102515.50;;;8.61;100.00
25658;BME280;13517;59.320;18.042;2023-05-19T03:44:26;102526.81;;;8.74;100.00
25658;BME280;13517;59.320;18.042;2023-05-19T03:46:51;102539.25;;;8.78;100.00
25658;BME280;13517;59.320;18.042;2023-05-19T03:49:17;102492.41;;;8.51;100.00
25658;BME280;13517;59.320;18.042;2023-05-19T03:51:42;102524.91;;;8.78;100.00
25658;BME280;13517;59.320;18.042;2023-05-19T03:54:08;102509.91;;;8.67;100.00
25658;BME280;13517;59.320;18.042;2023-05-19T03:56:37;102525.84;;;8.77;100.00
25658;BME280;13517;59.320;18.042;2023-05-19T03:59:03;102509.75;;;8.74;100.00
25658;BME280;13517;59.320;18.042;2023-05-19T04:01:31;102489.47;;;8.60;100.00
25658;BME280;13517;59.320;18.042;2023-05-19T04:03:57;102506.25;;;8.70;100.00
25658;BME280;13517;59.320;18.042;2023-05-19T04:06:22;102512.41;;;8.75;100.00
25658;BME280;13517;59.320;18.042;2023-05-19T04:08:48;102553.84;;;9.03;100.00
25658;BME280;13517;59.320;18.042;2023-05-19T04:11:14;102547.78;;;8.96;100.00
25658;BME280;13517;59.320;18.042;2023-05-19T04:13:39;102540.34;;;9.04;100.00
25658;BME280;13517;59.320;18.042;2023-05-19T04:16:05;102518.19;;;8.93;100.00
25658;BME280;13517;59.320;18.042;2023-05-19T04:18:31;102533.97;;;9.07;100.00
25658;BME280;13517;59.320;18.042;2023-05-19T04:20:56;102559.69;;;9.19;100.00
25658;BME280;13517;59.320;18.042;2023-05-19T04:23:21;102531.28;;;9.07;100.00
25658;BME280;13517;59.320;18.042;2023-05-19T04:25:47;102513.47;;;9.01;100.00
25658;BME280;13517;59.320;18.042;2023-05-19T04:28:13;102547.03;;;9.21;100.00
25658;BME280;13517;59.320;18.042;2023-05-19T04:30:39;102526.69;;;9.10;100.00
25658;BME280;13517;59.320;18.042;2023-05-19T04:33:06;102562.97;;;9.30;100.00
25658;BME280;13517;59.320;18.042;2023-05-19T04:35:32;102514.09;;;9.11;100.00
25658;BME280;13517;59.320;18.042;2023-05-19T04:37:57;102525.56;;;9.18;100.00
25658;BME280;13517;59.320;18.042;2023-05-19T04:40:23;102537.00;;;9.26;100.00
25658;BME280;13517;59.320;18.042;2023-05-19T04:42:49;102551.28;;;9.30;100.00
25658;BME280;13517;59.320;18.042;2023-05-19T04:45:16;102557.38;;;9.36;100.00
25658;BME280;13517;59.320;18.042;2023-05-19T04:47:42;102547.56;;;9.34;100.00
25658;BME280;13517;59.320;18.042;2023-05-19T04:50:08;102545.03;;;9.29;100.00
25658;BME280;13517;59.320;18.042;2023-05-19T04:52:35;102559.03;;;9.40;100.00
25658;BME280;13517;59.320;18.042;2023-05-19T04:55:02;102558.22;;;9.38;100.00
25658;BME280;13517;59.320;18.042;2023-05-19T04:57:27;102567.00;;;9.45;100.00
25658;BME280;13517;59.320;18.042;2023-05-19T04:59:52;102536.81;;;9.32;100.00
25658;BME280;13517;59.320;18.042;2023-05-19T05:02:24;102532.25;;;9.34;100.00
25658;BME280;13517;59.320;18.042;2023-05-19T05:04:50;102522.25;;;9.38;100.00
25658;BME280;13517;59.320;18.042;2023-05-19T05:07:19;102549.50;;;9.59;100.00
25658;BME280;13517;59.320;18.042;2023-05-19T05:09:44;102547.59;;;9.62;100.00
25658;BME280;13517;59.320;18.042;2023-05-19T05:12:10;102538.56;;;9.63;100.00
25658;BME280;13517;59.320;18.042;2023-05-19T05:14:36;102548.22;;;9.71;100.00
25658;BME280;13517;59.320;18.042;2023-05-19T05:17:02;102542.00;;;9.68;100.00
25658;BME280;13517;59.320;18.042;2023-05-19T05:19:27;102543.59;;;9.74;100.00
25658;BME280;13517;59.320;18.042;2023-05-19T05:21:53;102545.91;;;9.87;100.00
25658;BME280;13517;59.320;18.042;2023-05-19T05:24:19;102540.59;;;9.85;100.00
25658;BME280;13517;59.320;18.042;2023-05-19T05:26:44;102528.84;;;9.86;100.00
25658;BME280;13517;59.320;18.042;2023-05-19T05:29:10;102538.56;;;9.92;100.00
25658;BME280;13517;59.320;18.042;2023-05-19T05:31:35;102546.41;;;10.00;100.00
25658;BME280;13517;59.320;18.042;2023-05-19T05:34:01;102540.13;;;9.99;100.00
25658;BME280;13517;59.320;18.042;2023-05-19T05:36:27;102544.22;;;10.11;100.00
25658;BME280;13517;59.320;18.042;2023-05-19T05:38:52;102557.31;;;10.24;100.00
25658;BME280;13517;59.320;18.042;2023-05-19T05:41:18;102568.84;;;10.29;100.00
25658;BME280;13517;59.320;18.042;2023-05-19T05:43:43;102566.78;;;10.37;100.00
25658;BME280;13517;59.320;18.042;2023-05-19T05:46:08;102574.72;;;10.43;100.00
25658;BME280;13517;59.320;18.042;2023-05-19T05:48:34;102577.19;;;10.49;100.00
25658;BME280;13517;59.320;18.042;2023-05-19T05:51:00;102548.81;;;10.36;100.00
25658;BME280;13517;59.320;18.042;2023-05-19T05:53:29;102579.53;;;10.60;100.00
25658;BME280;13517;59.320;18.042;2023-05-19T05:55:55;102551.03;;;10.50;100.00
25658;BME280;13517;59.320;18.042;2023-05-19T05:58:20;102565.84;;;10.65;100.00
25658;BME280;13517;59.320;18.042;2023-05-19T06:00:46;102585.97;;;10.82;100.00
25658;BME280;13517;59.320;18.042;2023-05-19T06:03:13;102584.94;;;10.86;100.00
25658;BME280;13517;59.320;18.042;2023-05-19T06:05:39;102571.41;;;10.86;100.00
25658;BME280;13517;59.320;18.042;2023-05-19T06:08:04;102582.78;;;10.96;100.00
25658;BME280;13517;59.320;18.042;2023-05-19T06:10:30;102553.31;;;10.88;100.00
25658;BME280;13517;59.320;18.042;2023-05-19T06:12:56;102576.09;;;11.06;100.00
25658;BME280;13517;59.320;18.042;2023-05-19T06:15:21;102588.34;;;11.16;100.00
25658;BME280;13517;59.320;18.042;2023-05-19T06:17:47;102561.78;;;11.02;100.00
25658;BME280;13517;59.320;18.042;2023-05-19T06:20:13;102572.75;;;11.23;99.72
25658;BME280;13517;59.320;18.042;2023-05-19T06:22:38;102591.84;;;11.42;98.49
25658;BME280;13517;59.320;18.042;2023-05-19T06:25:04;102554.97;;;11.40;97.34
25658;BME280;13517;59.320;18.042;2023-05-19T06:27:30;102582.13;;;11.61;96.37
25658;BME280;13517;59.320;18.042;2023-05-19T06:29:55;102592.50;;;11.73;94.14
25658;BME280;13517;59.320;18.042;2023-05-19T06:32:21;102589.34;;;11.84;92.74
25658;BME280;13517;59.320;18.042;2023-05-19T06:34:46;102587.00;;;11.97;89.30
25658;BME280;13517;59.320;18.042;2023-05-19T06:37:19;102585.75;;;12.07;86.31
25658;BME280;13517;59.320;18.042;2023-05-19T06:39:45;102542.88;;;11.95;83.17
25658;BME280;13517;59.320;18.042;2023-05-19T06:42:11;102585.91;;;12.25;81.79
25658;BME280;13517;59.320;18.042;2023-05-19T06:44:36;102570.53;;;12.25;79.28
25658;BME280;13517;59.320;18.042;2023-05-19T06:47:01;102588.66;;;12.46;78.00
25658;BME280;13517;59.320;18.042;2023-05-19T06:49:27;102591.34;;;12.46;76.97
25658;BME280;13517;59.320;18.042;2023-05-19T06:51:53;102583.91;;;12.51;75.44
25658;BME280;13517;59.320;18.042;2023-05-19T06:54:18;102582.91;;;12.53;72.39
25658;BME280;13517;59.320;18.042;2023-05-19T06:56:44;102594.22;;;12.63;70.88
25658;BME280;13517;59.320;18.042;2023-05-19T06:59:09;102608.19;;;12.75;69.53
25658;BME280;13517;59.320;18.042;2023-05-19T07:01:35;102602.50;;;12.81;68.83
25658;BME280;13517;59.320;18.042;2023-05-19T07:04:00;102588.94;;;12.81;68.05
25658;BME280;13517;59.320;18.042;2023-05-19T07:06:26;102599.47;;;12.89;67.31
25658;BME280;13517;59.320;18.042;2023-05-19T07:08:51;102582.50;;;12.84;66.57
25658;BME280;13517;59.320;18.042;2023-05-19T07:11:17;102612.38;;;13.03;66.45
25658;BME280;13517;59.320;18.042;2023-05-19T07:13:42;102604.47;;;12.98;65.89
25658;BME280;13517;59.320;18.042;2023-05-19T07:16:08;102615.56;;;13.13;66.01
25658;BME280;13517;59.320;18.042;2023-05-19T07:18:33;102609.13;;;13.15;65.76
25658;BME280;13517;59.320;18.042;2023-05-19T07:20:59;102603.75;;;13.14;65.29
25658;BME280;13517;59.320;18.042;2023-05-19T07:23:24;102596.44;;;13.16;65.00
25658;BME280;13517;59.320;18.042;2023-05-19T07:25:53;102600.53;;;13.25;64.08
25658;BME280;13517;59.320;18.042;2023-05-19T07:28:20;102608.06;;;13.39;63.87
25658;BME280;13517;59.320;18.042;2023-05-19T07:30:45;102622.44;;;13.41;63.50
25658;BME280;13517;59.320;18.042;2023-05-19T07:33:11;102616.00;;;13.43;62.74
25658;BME280;13517;59.320;18.042;2023-05-19T07:35:36;102586.78;;;13.29;61.26
25658;BME280;13517;59.320;18.042;2023-05-19T07:38:02;102606.78;;;13.47;59.00
25658;BME280;13517;59.320;18.042;2023-05-19T07:40:27;102612.59;;;13.59;57.94
25658;BME280;13517;59.320;18.042;2023-05-19T07:42:53;102612.59;;;13.59;56.52
25658;BME280;13517;59.320;18.042;2023-05-19T07:45:18;102610.03;;;13.56;56.27
25658;BME280;13517;59.320;18.042;2023-05-19T07:47:44;102603.56;;;13.58;54.07
25658;BME280;13517;59.320;18.042;2023-05-19T07:50:09;102593.16;;;13.68;52.80
25658;BME280;13517;59.320;18.042;2023-05-19T07:52:35;102598.88;;;13.62;51.46
25658;BME280;13517;59.320;18.042;2023-05-19T07:55:00;102626.88;;;13.82;50.30
25658;BME280;13517;59.320;18.042;2023-05-19T07:57:26;102619.56;;;13.84;48.94
25658;BME280;13517;59.320;18.042;2023-05-19T07:59:51;102629.19;;;13.91;48.70
25658;BME280;13517;59.320;18.042;2023-05-19T08:02:16;102617.66;;;13.86;49.26
25658;BME280;13517;59.320;18.042;2023-05-19T08:04:42;102610.59;;;13.82;49.31
25658;BME280;13517;59.320;18.042;2023-05-19T08:07:07;102624.47;;;13.95;48.47
25658;BME280;13517;59.320;18.042;2023-05-19T08:09:33;102632.47;;;13.98;48.21
25658;BME280;13517;59.320;18.042;2023-05-19T08:11:58;102614.94;;;13.86;48.78
25658;BME280;13517;59.320;18.042;2023-05-19T08:14:25;102623.53;;;13.96;48.66
25658;BME280;13517;59.320;18.042;2023-05-19T08:16:51;102606.19;;;13.98;48.20
25658;BME280;13517;59.320;18.042;2023-05-19T08:19:16;102615.63;;;14.09;48.29
25658;BME280;13517;59.320;18.042;2023-05-19T08:21:42;102556.59;;;13.75;48.20
25658;BME280;13517;59.320;18.042;2023-05-19T08:24:08;102602.34;;;14.02;48.32
25658;BME280;13517;59.320;18.042;2023-05-19T08:26:34;102619.91;;;14.14;48.15
25658;BME280;13517;59.320;18.042;2023-05-19T08:28:59;102599.50;;;14.06;48.83
25658;BME280;13517;59.320;18.042;2023-05-19T08:31:25;102599.91;;;14.15;48.23
25658;BME280;13517;59.320;18.042;2023-05-19T08:33:50;102611.94;;;14.29;48.56
25658;BME280;13517;59.320;18.042;2023-05-19T08:36:16;102611.84;;;14.30;48.63
25658;BME280;13517;59.320;18.042;2023-05-19T08:38:41;102619.78;;;14.35;49.08
25658;BME280;13517;59.320;18.042;2023-05-19T08:41:07;102601.13;;;14.27;48.91
25658;BME280;13517;59.320;18.042;2023-05-19T08:43:32;102587.28;;;14.32;48.66
25658;BME280;13517;59.320;18.042;2023-05-19T08:45:58;102601.00;;;14.48;48.80
25658;BME280;13517;59.320;18.042;2023-05-19T08:48:28;102603.13;;;14.41;48.92
25658;BME280;13517;59.320;18.042;2023-05-19T08:53:31;102606.03;;;14.38;47.95
25658;BME280;13517;59.320;18.042;2023-05-19T08:56:04;102617.97;;;14.53;47.72
25658;BME280;13517;59.320;18.042;2023-05-19T08:58:37;102602.69;;;14.51;47.80
25658;BME280;13517;59.320;18.042;2023-05-19T09:01:03;102615.72;;;14.62;47.88
25658;BME280;13517;59.320;18.042;2023-05-19T09:03:31;102598.69;;;14.58;47.78
25658;BME280;13517;59.320;18.042;2023-05-19T09:06:04;102612.59;;;14.69;48.19
25658;BME280;13517;59.320;18.042;2023-05-19T09:08:30;102609.69;;;14.74;48.22
25658;BME280;13517;59.320;18.042;2023-05-19T09:10:55;102592.22;;;14.61;48.20
25658;BME280;13517;59.320;18.042;2023-05-19T09:13:21;102595.53;;;14.66;47.68
25658;BME280;13517;59.320;18.042;2023-05-19T09:15:47;102615.59;;;14.82;47.46
25658;BME280;13517;59.320;18.042;2023-05-19T09:18:14;102608.41;;;14.81;48.08
25658;BME280;13517;59.320;18.042;2023-05-19T09:20:41;102607.31;;;14.84;47.86
25658;BME280;13517;59.320;18.042;2023-05-19T09:23:11;102619.81;;;14.88;47.73
25658;BME280;13517;59.320;18.042;2023-05-19T09:26:00;102604.53;;;14.86;47.82
25658;BME280;13517;59.320;18.042;2023-05-19T09:28:30;102615.16;;;14.90;48.28
25658;BME280;13517;59.320;18.042;2023-05-19T09:31:01;102609.72;;;14.90;49.27
25658;BME280;13517;59.320;18.042;2023-05-19T09:33:27;102610.63;;;14.91;49.93
25658;BME280;13517;59.320;18.042;2023-05-19T09:35:54;102600.59;;;14.91;50.19
25658;BME280;13517;59.320;18.042;2023-05-19T09:38:23;102610.19;;;14.98;49.56
25658;BME280;13517;59.320;18.042;2023-05-19T09:40:49;102603.97;;;14.96;49.08
25658;BME280;13517;59.320;18.042;2023-05-19T09:43:16;102596.84;;;14.94;48.43
25658;BME280;13517;59.320;18.042;2023-05-19T09:45:41;102580.22;;;14.82;48.69
25658;BME280;13517;59.320;18.042;2023-05-19T09:48:07;102567.72;;;14.78;49.01
25658;BME280;13517;59.320;18.042;2023-05-19T09:50:32;102566.88;;;14.78;49.47
25658;BME280;13517;59.320;18.042;2023-05-19T09:52:58;102604.53;;;15.03;49.87
25658;BME280;13517;59.320;18.042;2023-05-19T09:55:25;102591.72;;;15.05;50.63
25658;BME280;13517;59.320;18.042;2023-05-19T09:57:54;102576.03;;;14.93;50.28
25658;BME280;13517;59.320;18.042;2023-05-19T10:00:25;102573.94;;;14.98;50.15
25658;BME280;13517;59.320;18.042;2023-05-19T10:02:51;102600.50;;;15.10;49.96
25658;BME280;13517;59.320;18.042;2023-05-19T10:05:18;102594.81;;;15.15;50.39
25658;BME280;13517;59.320;18.042;2023-05-19T10:07:49;102606.41;;;15.19;49.90
25658;BME280;13517;59.320;18.042;2023-05-19T10:10:16;102592.81;;;15.19;49.57
25658;BME280;13517;59.320;18.042;2023-05-19T10:12:42;102587.13;;;15.06;49.55
25658;BME280;13517;59.320;18.042;2023-05-19T10:15:09;102594.56;;;15.20;48.85
25658;BME280;13517;59.320;18.042;2023-05-19T10:17:37;102594.88;;;15.14;48.25
25658;BME280;13517;59.320;18.042;2023-05-19T10:20:05;102579.78;;;15.08;48.58
25658;BME280;13517;59.320;18.042;2023-05-19T10:22:32;102566.06;;;15.09;48.14
25658;BME280;13517;59.320;18.042;2023-05-19T10:24:57;102590.72;;;15.24;48.02
25658;BME280;13517;59.320;18.042;2023-05-19T10:27:24;102584.28;;;15.25;47.83
25658;BME280;13517;59.320;18.042;2023-05-19T10:29:53;102560.91;;;15.21;47.97
25658;BME280;13517;59.320;18.042;2023-05-19T10:32:22;102590.13;;;15.35;48.07
25658;BME280;13517;59.320;18.042;2023-05-19T10:40:23;102573.47;;;15.23;47.82
25658;BME280;13517;59.320;18.042;2023-05-19T10:45:53;102563.94;;;15.32;48.08
25658;BME280;13517;59.320;18.042;2023-05-19T10:48:20;102580.38;;;15.47;47.64
25658;BME280;13517;59.320;18.042;2023-05-19T10:50:52;102571.47;;;15.27;47.86
25658;BME280;13517;59.320;18.042;2023-05-19T10:53:18;102577.22;;;15.38;48.04
25658;BME280;13517;59.320;18.042;2023-05-19T10:55:50;102568.84;;;15.42;48.18
25658;BME280;13517;59.320;18.042;2023-05-19T10:58:46;102572.63;;;15.39;48.08
25658;BME280;13517;59.320;18.042;2023-05-19T11:01:13;102573.41;;;15.41;48.60
25658;BME280;13517;59.320;18.042;2023-05-19T11:03:52;102576.94;;;15.43;48.06
25658;BME280;13517;59.320;18.042;2023-05-19T11:06:34;102564.56;;;15.53;47.27
25658;BME280;13517;59.320;18.042;2023-05-19T11:09:15;102579.06;;;15.54;46.14
25658;BME280;13517;59.320;18.042;2023-05-19T11:11:47;102563.41;;;15.42;46.88
25658;BME280;13517;59.320;18.042;2023-05-19T11:14:24;102569.22;;;15.51;46.36
25658;BME280;13517;59.320;18.042;2023-05-19T11:16:52;102583.28;;;15.60;46.32
25658;BME280;13517;59.320;18.042;2023-05-19T11:19:28;102567.34;;;15.52;46.04
25658;BME280;13517;59.320;18.042;2023-05-19T11:21:55;102566.50;;;15.51;46.03
25658;BME280;13517;59.320;18.042;2023-05-19T11:27:30;102584.16;;;15.60;44.46
25658;BME280;13517;59.320;18.042;2023-05-19T11:30:16;102576.97;;;15.59;44.58
25658;BME280;13517;59.320;18.042;2023-05-19T11:32:46;102583.63;;;15.70;45.15
25658;BME280;13517;59.320;18.042;2023-05-19T11:35:12;102553.38;;;15.58;45.44
25658;BME280;13517;59.320;18.042;2023-05-19T11:37:38;102572.75;;;15.70;45.23
25658;BME280;13517;59.320;18.042;2023-05-19T11:40:06;102562.81;;;15.69;44.89
25658;BME280;13517;59.320;18.042;2023-05-19T11:42:33;102552.44;;;15.59;44.95
25658;BME280;13517;59.320;18.042;2023-05-19T11:45:00;102534.84;;;15.49;45.17
25658;BME280;13517;59.320;18.042;2023-05-19T11:47:26;102567.72;;;15.78;44.89
25658;BME280;13517;59.320;18.042;2023-05-19T11:49:53;102573.72;;;15.85;45.46
25658;BME280;13517;59.320;18.042;2023-05-19T11:52:25;102563.88;;;15.82;45.07
25658;BME280;13517;59.320;18.042;2023-05-19T11:54:59;102572.47;;;15.90;45.41
25658;BME280;13517;59.320;18.042;2023-05-19T11:57:25;102567.19;;;15.87;45.20
25658;BME280;13517;59.320;18.042;2023-05-19T11:59:51;102559.56;;;15.94;44.82
25658;BME280;13517;59.320;18.042;2023-05-19T12:02:23;102549.06;;;15.86;45.05
25658;BME280;13517;59.320;18.042;2023-05-19T12:04:49;102562.63;;;15.88;45.29
25658;BME280;13517;59.320;18.042;2023-05-19T12:07:17;102576.44;;;16.01;44.69
25658;BME280;13517;59.320;18.042;2023-05-19T12:09:46;102548.91;;;15.89;44.28
25658;BME280;13517;59.320;18.042;2023-05-19T12:12:16;102558.59;;;15.95;44.42
25658;BME280;13517;59.320;18.042;2023-05-19T12:14:42;102550.16;;;16.00;44.72
25658;BME280;13517;59.320;18.042;2023-05-19T12:17:15;102564.03;;;16.11;44.01
25658;BME280;13517;59.320;18.042;2023-05-19T12:19:46;102565.88;;;16.11;44.20
25658;BME280;13517;59.320;18.042;2023-05-19T12:22:13;102555.06;;;16.09;43.53
25658;BME280;13517;59.320;18.042;2023-05-19T12:24:39;102549.19;;;16.01;43.80
25658;BME280;13517;59.320;18.042;2023-05-19T12:27:23;102543.84;;;15.99;43.55
25658;BME280;13517;59.320;18.042;2023-05-19T12:29:51;102570.09;;;16.16;43.39
25658;BME280;13517;59.320;18.042;2023-05-19T12:32:17;102546.97;;;16.08;42.98
25658;BME280;13517;59.320;18.042;2023-05-19T12:34:43;102575.16;;;16.23;42.54
25658;BME280;13517;59.320;18.042;2023-05-19T12:37:09;102575.09;;;16.24;42.12
25658;BME280;13517;59.320;18.042;2023-05-19T12:39:35;102556.47;;;16.16;42.31
25658;BME280;13517;59.320;18.042;2023-05-19T12:42:08;102571.03;;;16.15;41.80
25658;BME280;13517;59.320;18.042;2023-05-19T12:44:37;102551.19;;;15.97;41.58
25658;BME280;13517;59.320;18.042;2023-05-19T12:47:04;102569.50;;;16.11;41.73
25658;BME280;13517;59.320;18.042;2023-05-19T12:49:31;102568.50;;;16.12;41.51
25658;BME280;13517;59.320;18.042;2023-05-19T12:52:00;102575.91;;;16.10;41.99
25658;BME280;13517;59.320;18.042;2023-05-19T12:54:26;102569.56;;;16.10;42.05
25658;BME280;13517;59.320;18.042;2023-05-19T12:56:51;102576.00;;;16.09;42.07
25658;BME280;13517;59.320;18.042;2023-05-19T12:59:23;102566.00;;;16.09;41.51
25658;BME280;13517;59.320;18.042;2023-05-19T13:01:56;102553.84;;;15.99;41.75
25658;BME280;13517;59.320;18.042;2023-05-19T13:04:23;102577.75;;;16.10;41.44
25658;BME280;13517;59.320;18.042;2023-05-19T13:06:48;102569.66;;;16.08;41.50